createdAt,value
2019-03-19T00:04:27.831Z,69.56
2019-03-19T00:09:32.967Z,69.74
2019-03-19T00:14:38.269Z,69.59
2019-03-19T00:19:43.280Z,69.20
2019-03-19T00:24:48.323Z,69.49
2019-03-19T00:29:53.391Z,69.74
2019-03-19T00:34:58.430Z,69.90
2019-03-19T00:40:07.112Z,69.91
2019-03-19T00:45:13.865Z,69.91
2019-03-19T00:50:19.075Z,70.09
2019-03-19T00:55:24.181Z,70.11
2019-03-19T01:00:29.291Z,69.99
2019-03-19T01:05:34.695Z,69.91
2019-03-19T01:10:39.972Z,70.22
2019-03-19T01:15:45.132Z,70.10
2019-03-19T01:20:50.487Z,70.26
2019-03-19T01:25:56.043Z,70.28
2019-03-19T01:31:01.380Z,70.08
2019-03-19T01:36:06.534Z,69.83
2019-03-19T01:41:11.551Z,69.87
2019-03-19T01:46:16.643Z,71.23
2019-03-19T01:51:21.815Z,72.22
2019-03-19T01:56:26.984Z,72.01
2019-03-19T02:01:32.125Z,71.90
2019-03-19T02:06:37.731Z,71.43
2019-03-19T02:11:42.880Z,70.71
2019-03-19T02:16:48.202Z,70.66
2019-03-19T02:21:53.240Z,70.60
2019-03-19T02:26:58.390Z,70.74
2019-03-19T02:32:03.534Z,70.65
2019-03-19T02:37:08.564Z,70.50
2019-03-19T02:42:13.655Z,70.44
2019-03-19T02:47:18.750Z,70.25
2019-03-19T02:52:23.874Z,70.32
2019-03-19T02:57:29.004Z,70.24
2019-03-19T03:02:34.063Z,70.15
2019-03-19T03:07:40.093Z,70.22
2019-03-19T03:12:45.744Z,70.76
2019-03-19T03:17:51.069Z,70.87
2019-03-19T03:22:56.261Z,71.31
2019-03-19T03:28:01.340Z,71.29
2019-03-19T03:33:06.519Z,71.55
2019-03-19T03:38:11.614Z,71.72
2019-03-19T03:43:16.727Z,70.99
2019-03-19T03:48:21.876Z,70.97
2019-03-19T03:53:26.935Z,70.97
2019-03-19T03:58:32.138Z,71.36
2019-03-19T04:03:37.153Z,71.47
2019-03-19T04:08:42.400Z,71.33
2019-03-19T04:13:47.477Z,71.16
2019-03-19T04:18:52.925Z,71.46
2019-03-19T04:23:58.165Z,71.41
2019-03-19T04:29:03.500Z,71.12
2019-03-19T04:34:08.565Z,71.09
2019-03-19T04:39:13.663Z,71.12
2019-03-19T04:44:18.717Z,71.15
2019-03-19T04:49:23.790Z,71.56
2019-03-19T04:54:29.272Z,71.63
2019-03-19T04:59:34.444Z,71.30
2019-03-19T05:04:39.619Z,71.24
2019-03-19T05:09:44.712Z,71.09
2019-03-19T05:14:49.803Z,70.55
2019-03-19T05:19:55.159Z,70.57
2019-03-19T05:25:00.300Z,70.27
2019-03-19T05:30:18.645Z,69.73
2019-03-19T05:35:23.697Z,69.74
2019-03-19T05:40:28.955Z,69.75
2019-03-19T05:45:34.421Z,69.83
2019-03-19T05:50:39.596Z,69.58
2019-03-19T05:55:44.678Z,69.65
2019-03-19T06:00:49.910Z,69.83
2019-03-19T06:05:55.096Z,69.34
2019-03-19T06:11:00.148Z,69.31
2019-03-19T06:16:05.352Z,68.85
2019-03-19T06:21:10.857Z,68.63
2019-03-19T06:26:15.978Z,68.60
2019-03-19T06:31:21.101Z,68.35
2019-03-19T06:36:26.267Z,68.26
2019-03-19T06:41:31.419Z,67.25
2019-03-19T06:46:36.764Z,67.04
2019-03-19T06:51:41.849Z,66.31
2019-03-19T06:56:46.906Z,65.80
2019-03-19T07:01:52.193Z,65.29
2019-03-19T07:06:57.345Z,65.05
2019-03-19T07:12:02.558Z,64.47
2019-03-19T07:17:07.895Z,64.79
2019-03-19T07:22:13.112Z,64.20
2019-03-19T07:27:18.183Z,62.41
2019-03-19T07:32:23.207Z,62.01
2019-03-19T07:37:28.294Z,60.91
2019-03-19T07:42:33.324Z,60.66
2019-03-19T07:47:38.429Z,60.73
2019-03-19T07:52:43.644Z,61.42
2019-03-19T07:57:48.838Z,60.10
2019-03-19T08:02:53.880Z,59.93
2019-03-19T08:07:58.956Z,60.02
2019-03-19T08:13:05.162Z,59.67
2019-03-19T08:18:10.367Z,58.95
2019-03-19T08:23:15.454Z,58.95
2019-03-19T08:28:20.529Z,58.49
2019-03-19T08:33:25.754Z,57.88
2019-03-19T08:38:30.877Z,57.87
2019-03-19T08:43:35.905Z,58.67
2019-03-19T08:48:41.005Z,58.13
2019-03-19T08:53:46.028Z,56.62
2019-03-19T08:58:51.329Z,56.40
2019-03-19T09:03:56.452Z,55.66
2019-03-19T09:09:01.742Z,55.86
2019-03-19T09:14:08.365Z,54.04
2019-03-19T09:19:13.440Z,54.69
2019-03-19T09:24:18.469Z,53.50
2019-03-19T09:29:25.394Z,52.58
2019-03-19T09:34:30.373Z,51.62
2019-03-19T09:39:35.609Z,52.62
2019-03-19T09:44:40.768Z,53.63
2019-03-19T09:49:45.807Z,52.18
2019-03-19T09:54:50.883Z,51.04
2019-03-19T09:59:55.915Z,48.66
2019-03-19T10:05:01.031Z,48.76
2019-03-19T10:10:09.241Z,48.10
2019-03-19T10:15:15.521Z,48.44
2019-03-19T10:20:25.667Z,48.26
2019-03-19T10:25:30.765Z,47.79
2019-03-19T10:30:35.992Z,47.30
2019-03-19T10:35:41.142Z,47.77
2019-03-19T10:40:46.228Z,47.03
2019-03-19T10:45:51.372Z,47.72
2019-03-19T10:50:56.451Z,48.20
2019-03-19T10:56:01.874Z,48.03
2019-03-19T11:01:07.088Z,46.91
2019-03-19T11:06:12.305Z,47.54
2019-03-19T11:11:17.319Z,46.53
2019-03-19T11:16:22.610Z,45.51
2019-03-19T11:21:27.743Z,45.68
2019-03-19T11:26:32.882Z,43.70
2019-03-19T11:31:37.989Z,44.99
2019-03-19T11:36:43.297Z,43.75
2019-03-19T11:41:48.485Z,45.64
2019-03-19T11:46:53.758Z,46.51
2019-03-19T11:51:58.878Z,46.87
2019-03-19T11:57:04.184Z,47.02
2019-03-19T12:02:09.458Z,46.07
2019-03-19T12:07:14.823Z,46.81
2019-03-19T12:12:21.047Z,45.35
2019-03-19T12:17:26.125Z,43.87
2019-03-19T12:22:31.316Z,41.88
2019-03-19T12:27:36.412Z,40.79
2019-03-19T12:32:41.591Z,39.05
2019-03-19T12:37:46.814Z,39.39
2019-03-19T12:42:51.819Z,39.98
2019-03-19T12:47:57.284Z,40.31
2019-03-19T12:53:02.502Z,38.45
2019-03-19T12:58:07.611Z,39.01
2019-03-19T13:03:13.126Z,39.73
2019-03-19T13:08:20.315Z,40.55
2019-03-19T13:13:24.995Z,36.45
2019-03-19T13:18:31.178Z,36.88
2019-03-19T13:23:36.296Z,37.09
2019-03-19T13:28:43.290Z,37.77
2019-03-19T13:33:48.100Z,36.82
2019-03-19T13:38:53.123Z,37.12
2019-03-19T13:43:58.159Z,38.35
2019-03-19T13:49:03.428Z,37.45
2019-03-19T13:54:08.573Z,35.54
2019-03-19T13:59:13.736Z,31.78
2019-03-19T14:04:21.051Z,30.95
2019-03-19T14:09:25.688Z,30.09
2019-03-19T14:14:30.880Z,30.54
2019-03-19T14:19:36.209Z,30.36
2019-03-19T14:24:41.353Z,30.49
2019-03-19T14:29:46.404Z,31.50
2019-03-19T14:34:51.451Z,30.46
2019-03-19T14:39:56.518Z,30.23
2019-03-19T14:45:01.550Z,30.19
2019-03-19T14:50:15.287Z,30.07
2019-03-19T14:55:20.386Z,31.80
2019-03-19T15:00:25.676Z,31.37
2019-03-19T15:05:30.750Z,29.92
2019-03-19T15:10:35.919Z,28.84
2019-03-19T15:15:41.050Z,29.51
2019-03-19T15:20:46.565Z,30.28
2019-03-19T15:25:51.803Z,31.04
2019-03-19T15:30:56.914Z,30.33
2019-03-19T15:36:03.167Z,30.38
2019-03-19T15:41:08.251Z,31.08
2019-03-19T15:46:13.334Z,33.48
2019-03-19T15:51:18.381Z,36.32
2019-03-19T15:56:23.613Z,37.85
2019-03-19T16:01:28.842Z,38.27
2019-03-19T16:06:34.162Z,38.76
2019-03-19T16:11:39.613Z,40.02
2019-03-19T16:16:44.870Z,41.02
2019-03-19T16:21:50.345Z,41.12
2019-03-19T16:26:57.064Z,41.68
2019-03-19T16:32:02.288Z,42.04
2019-03-19T16:37:07.420Z,42.84
2019-03-19T16:42:12.547Z,43.06
2019-03-19T16:47:17.599Z,43.69
2019-03-19T16:52:22.654Z,44.92
2019-03-19T16:57:27.696Z,45.72
2019-03-19T17:02:32.834Z,46.62
2019-03-19T17:07:37.949Z,45.88
2019-03-19T17:12:43.135Z,45.88
2019-03-19T17:17:48.391Z,45.88
2019-03-19T17:22:53.738Z,45.96
2019-03-19T17:27:58.975Z,46.30
2019-03-19T17:33:04.847Z,46.87
2019-03-19T17:38:10.104Z,46.78
2019-03-19T17:43:15.477Z,47.78
2019-03-19T17:48:20.688Z,47.80
2019-03-19T17:53:25.765Z,48.46
2019-03-19T17:58:30.964Z,48.65
2019-03-19T18:03:36.049Z,49.27
2019-03-19T18:08:41.117Z,49.74
2019-03-19T18:13:46.478Z,49.95
2019-03-19T18:18:51.633Z,50.16
2019-03-19T18:23:56.837Z,50.47
2019-03-19T18:29:02.326Z,51.46
2019-03-19T18:34:10.469Z,51.44
2019-03-19T18:39:16.795Z,51.91
2019-03-19T18:44:22.012Z,52.62
2019-03-19T18:49:27.066Z,52.62
2019-03-19T18:54:32.320Z,53.19
2019-03-19T18:59:37.426Z,54.00
2019-03-19T19:04:42.649Z,54.12
2019-03-19T19:09:47.722Z,54.49
2019-03-19T19:14:52.840Z,55.05
2019-03-19T19:19:57.885Z,55.37
2019-03-19T19:25:03.095Z,55.83
2019-03-19T19:30:16.881Z,56.47
2019-03-19T19:35:22.065Z,56.61
2019-03-19T19:40:27.214Z,56.78
2019-03-19T19:45:32.434Z,57.12
2019-03-19T19:50:37.573Z,57.75
2019-03-19T19:55:42.788Z,57.84
2019-03-19T20:00:48.014Z,58.17
2019-03-19T20:05:53.220Z,58.71
2019-03-19T20:10:58.387Z,59.09
2019-03-19T20:16:03.604Z,59.51
2019-03-19T20:21:08.743Z,59.79
2019-03-19T20:26:13.890Z,59.94
2019-03-19T20:31:19.303Z,60.56
2019-03-19T20:36:24.581Z,60.55
2019-03-19T20:41:30.846Z,60.96
2019-03-19T20:46:36.137Z,61.47
2019-03-19T20:51:41.394Z,61.69
2019-03-19T20:56:46.909Z,61.94
2019-03-19T21:01:52.077Z,62.29
2019-03-19T21:06:57.127Z,62.69
2019-03-19T21:12:02.451Z,63.30
2019-03-19T21:17:07.677Z,63.05
2019-03-19T21:22:13.013Z,63.81
2019-03-19T21:27:18.553Z,64.00
2019-03-19T21:32:23.816Z,64.07
2019-03-19T21:37:29.251Z,64.58
2019-03-19T21:42:34.714Z,65.04
2019-03-19T21:47:39.987Z,65.45
2019-03-19T21:52:45.525Z,65.55
2019-03-19T21:57:50.771Z,65.71
2019-03-19T22:02:56.961Z,66.05
2019-03-19T22:08:02.183Z,66.09
2019-03-19T22:13:07.471Z,65.91
2019-03-19T22:18:12.745Z,66.71
2019-03-19T22:23:17.970Z,66.82
2019-03-19T22:28:23.164Z,67.00
2019-03-19T22:33:28.218Z,66.78
2019-03-19T22:38:33.315Z,67.13
2019-03-19T22:43:38.518Z,67.59
2019-03-19T22:48:43.696Z,67.47
2019-03-19T22:53:48.824Z,68.02
2019-03-19T22:58:53.913Z,68.57
2019-03-19T23:03:59.047Z,68.92
2019-03-19T23:09:06.548Z,69.02
2019-03-19T23:14:12.049Z,68.91
2019-03-19T23:19:17.361Z,69.12
2019-03-19T23:24:22.399Z,69.22
2019-03-19T23:29:27.671Z,69.22
2019-03-19T23:34:38.589Z,69.24
2019-03-19T23:39:39.713Z,69.23
2019-03-19T23:44:45.017Z,69.53
2019-03-19T23:49:50.173Z,69.83
2019-03-19T23:54:55.345Z,69.93
